createdAt,value
2023-05-10T00:01:23.106Z,100560.41
2023-05-10T00:03:52.439Z,100567.44
2023-05-10T00:06:21.375Z,100559.81
2023-05-10T00:08:52.318Z,100559.81
2023-05-10T00:11:22.970Z,100557.06
2023-05-10T00:13:52.359Z,100557.97
2023-05-10T00:16:22.740Z,100566.84
2023-05-10T00:18:51.842Z,100566.59
2023-05-10T00:21:20.895Z,100562.50
2023-05-10T00:23:49.970Z,100558.97
2023-05-10T00:26:18.907Z,100555.13
2023-05-10T00:28:54.034Z,100561.84
2023-05-10T00:31:24.372Z,100569.25
2023-05-10T00:33:53.538Z,100563.72
2023-05-10T00:36:23.050Z,100571.00
2023-05-10T00:38:52.451Z,100567.91
2023-05-10T00:41:22.210Z,100579.59
2023-05-10T00:43:51.365Z,100571.47
2023-05-10T00:46:20.827Z,100570.00
2023-05-10T00:48:51.507Z,100571.31
2023-05-10T00:51:20.833Z,100576.75
2023-05-10T00:53:52.601Z,100573.09
2023-05-10T00:56:24.214Z,100577.09
2023-05-10T00:58:53.373Z,100572.56
2023-05-10T01:01:22.660Z,100563.81
2023-05-10T01:03:53.711Z,100565.50
2023-05-10T01:06:22.863Z,100556.34
2023-05-10T01:08:52.396Z,100565.50
2023-05-10T01:11:21.988Z,100563.38
2023-05-10T01:13:57.967Z,100558.44
2023-05-10T01:16:29.013Z,100566.06
2023-05-10T01:18:59.420Z,100562.69
2023-05-10T01:21:35.219Z,100558.69
2023-05-10T01:24:23.334Z,100561.78
2023-05-10T01:27:36.606Z,100558.84
2023-05-10T01:30:37.500Z,100559.41
2023-05-10T01:33:18.348Z,100556.19
2023-05-10T01:35:54.677Z,100553.94
2023-05-10T01:38:32.587Z,100560.94
2023-05-10T01:41:15.286Z,100551.41
2023-05-10T01:43:54.695Z,100557.09
2023-05-10T01:46:31.029Z,100542.63
2023-05-10T01:49:05.167Z,100544.66
2023-05-10T01:51:39.043Z,100546.88
2023-05-10T01:54:09.849Z,100544.09
2023-05-10T01:56:40.156Z,100544.00
2023-05-10T01:59:15.648Z,100542.81
2023-05-10T02:01:46.624Z,100547.09
2023-05-10T02:04:19.627Z,100547.66
2023-05-10T02:06:50.864Z,100547.19
2023-05-10T02:09:23.492Z,100546.06
2023-05-10T02:11:53.832Z,100549.34
2023-05-10T02:14:25.541Z,100545.84
2023-05-10T02:16:56.738Z,100548.53
2023-05-10T02:19:28.388Z,100552.41
2023-05-10T02:22:20.965Z,100546.19
2023-05-10T02:24:51.517Z,100542.53
2023-05-10T02:27:22.280Z,100544.72
2023-05-10T02:29:52.719Z,100539.84
2023-05-10T02:32:23.675Z,100542.03
2023-05-10T02:34:55.290Z,100540.59
2023-05-10T02:37:24.877Z,100537.94
2023-05-10T02:39:57.544Z,100532.94
2023-05-10T02:42:29.234Z,100534.81
2023-05-10T02:45:04.274Z,100535.97
2023-05-10T02:47:37.077Z,100525.94
2023-05-10T02:50:09.266Z,100530.69
2023-05-10T02:52:46.550Z,100525.97
2023-05-10T02:55:18.525Z,100531.38
2023-05-10T02:57:53.520Z,100533.00
2023-05-10T03:00:22.770Z,100526.31
2023-05-10T03:02:51.756Z,100525.91
2023-05-10T03:05:22.532Z,100524.72
2023-05-10T03:07:52.155Z,100531.59
2023-05-10T03:10:22.396Z,100527.59
2023-05-10T03:13:08.253Z,100538.59
2023-05-10T03:15:44.700Z,100520.56
2023-05-10T03:18:20.620Z,100525.78
2023-05-10T03:20:53.326Z,100525.78
2023-05-10T03:23:29.020Z,100526.09
2023-05-10T03:25:58.784Z,100520.91
2023-05-10T03:28:29.066Z,100517.88
2023-05-10T03:30:59.028Z,100520.34
2023-05-10T03:33:28.151Z,100526.19
2023-05-10T03:35:58.501Z,100523.75
2023-05-10T03:38:30.499Z,100520.59
2023-05-10T03:41:00.010Z,100517.72
2023-05-10T03:43:29.237Z,100515.88
2023-05-10T03:45:58.267Z,100521.25
2023-05-10T03:48:27.320Z,100516.50
2023-05-10T03:50:56.358Z,100527.69
2023-05-10T03:53:28.000Z,100523.50
2023-05-10T03:55:57.232Z,100517.38
2023-05-10T03:58:26.880Z,100522.09
2023-05-10T04:00:56.433Z,100513.00
2023-05-10T04:03:27.087Z,100518.22
2023-05-10T04:06:02.073Z,100513.75
2023-05-10T04:08:33.479Z,100514.78
2023-05-10T04:11:09.723Z,100522.09
2023-05-10T04:13:39.305Z,100510.09
2023-05-10T04:16:08.617Z,100507.56
2023-05-10T04:18:37.633Z,100512.44
2023-05-10T04:21:06.596Z,100509.84
2023-05-10T04:23:36.938Z,100509.16
2023-05-10T04:26:06.096Z,100513.47
2023-05-10T04:28:35.257Z,100509.66
2023-05-10T04:31:05.127Z,100505.63
2023-05-10T04:33:34.486Z,100500.34
2023-05-10T04:36:04.298Z,100497.94
2023-05-10T04:38:33.721Z,100488.31
2023-05-10T04:41:11.121Z,100496.91
2023-05-10T04:43:40.807Z,100486.09
2023-05-10T04:46:10.016Z,100491.59
2023-05-10T04:48:39.178Z,100493.19
2023-05-10T04:51:08.307Z,100491.09
2023-05-10T04:53:37.516Z,100489.50
2023-05-10T04:56:08.006Z,100492.06
2023-05-10T04:58:38.424Z,100481.03
2023-05-10T05:01:09.216Z,100487.38
2023-05-10T05:03:39.063Z,100484.25
2023-05-10T05:06:08.612Z,100486.53
2023-05-10T05:08:37.771Z,100486.72
2023-05-10T05:11:06.955Z,100487.81
2023-05-10T05:13:37.418Z,100489.06
2023-05-10T05:16:07.579Z,100480.97
2023-05-10T05:18:36.621Z,100485.28
2023-05-10T05:21:05.730Z,100479.91
2023-05-10T05:23:34.726Z,100477.50
2023-05-10T05:26:03.708Z,100474.31
2023-05-10T05:28:34.042Z,100471.38
2023-05-10T05:31:04.538Z,100472.41
2023-05-10T05:33:33.821Z,100474.56
2023-05-10T05:36:03.780Z,100470.00
2023-05-10T05:38:33.046Z,100459.72
2023-05-10T05:41:02.534Z,100466.91
2023-05-10T05:43:31.629Z,100467.81
2023-05-10T05:46:00.678Z,100466.97
2023-05-10T05:48:32.456Z,100470.16
2023-05-10T05:51:01.513Z,100465.31
2023-05-10T05:53:30.640Z,100461.22
2023-05-10T05:56:00.904Z,100461.03
2023-05-10T05:58:29.970Z,100457.78
2023-05-10T06:00:59.004Z,100459.72
2023-05-10T06:03:28.054Z,100455.28
2023-05-10T06:05:58.770Z,100450.22
2023-05-10T06:08:28.035Z,100451.44
2023-05-10T06:10:57.363Z,100451.00
2023-05-10T06:13:26.371Z,100444.06
2023-05-10T06:15:55.500Z,100450.38
2023-05-10T06:18:24.711Z,100445.81
2023-05-10T06:20:53.952Z,100447.59
2023-05-10T06:23:24.463Z,100447.16
2023-05-10T06:25:54.173Z,100448.75
2023-05-10T06:28:23.341Z,100444.91
2023-05-10T06:30:52.632Z,100441.28
2023-05-10T06:33:21.803Z,100436.59
2023-05-10T06:35:50.844Z,100441.63
2023-05-10T06:38:20.013Z,100440.53
2023-05-10T06:40:50.615Z,100448.19
2023-05-10T06:43:19.587Z,100425.72
2023-05-10T06:45:49.907Z,100439.38
2023-05-10T06:48:18.973Z,100436.72
2023-05-10T06:50:49.176Z,100435.41
2023-05-10T06:53:18.338Z,100432.72
2023-05-10T06:55:47.596Z,100430.53
2023-05-10T06:58:17.980Z,100438.38
2023-05-10T07:00:48.168Z,100434.97
2023-05-10T07:03:17.590Z,100431.00
2023-05-10T07:05:46.703Z,100427.22
2023-05-10T07:08:16.031Z,100428.97
2023-05-10T07:10:45.046Z,100419.84
2023-05-10T07:13:14.007Z,100420.28
2023-05-10T07:15:44.638Z,100422.19
2023-05-10T07:18:13.837Z,100426.16
2023-05-10T07:20:42.951Z,100425.84
2023-05-10T07:23:12.167Z,100415.91
2023-05-10T07:25:41.347Z,100409.66
2023-05-10T07:28:10.317Z,100414.63
2023-05-10T07:30:39.351Z,100411.84
2023-05-10T07:33:10.686Z,100412.97
2023-05-10T07:35:39.809Z,100411.81
2023-05-10T07:38:08.946Z,100412.41
2023-05-10T07:40:38.314Z,100410.72
2023-05-10T07:43:07.725Z,100420.28
2023-05-10T07:45:37.104Z,100415.94
2023-05-10T07:48:06.457Z,100408.53
2023-05-10T07:50:37.051Z,100415.84
2023-05-10T07:53:06.724Z,100414.03
2023-05-10T07:55:35.908Z,100410.31
2023-05-10T07:58:09.483Z,100406.88
2023-05-10T08:00:40.592Z,100406.66
2023-05-10T08:03:09.976Z,100402.38
2023-05-10T08:05:42.098Z,100401.53
2023-05-10T08:08:12.056Z,100397.44
2023-05-10T08:10:41.480Z,100396.53
2023-05-10T08:13:10.615Z,100397.53
2023-05-10T08:15:39.937Z,100398.34
2023-05-10T08:18:09.050Z,100393.69
2023-05-10T08:20:38.218Z,100395.91
2023-05-10T08:23:08.728Z,100387.84
2023-05-10T08:25:38.342Z,100389.56
2023-05-10T08:28:08.815Z,100385.47
2023-05-10T08:30:39.072Z,100377.94
2023-05-10T08:33:08.782Z,100380.47
2023-05-10T08:35:37.931Z,100371.28
2023-05-10T08:38:08.355Z,100368.59
2023-05-10T08:40:39.890Z,100364.59
2023-05-10T08:43:11.202Z,100369.19
2023-05-10T08:45:42.561Z,100372.13
2023-05-10T08:48:14.037Z,100370.66
2023-05-10T08:50:44.644Z,100365.09
2023-05-10T08:53:17.448Z,100359.06
2023-05-10T08:55:46.558Z,100365.59
2023-05-10T08:58:16.641Z,100363.22
2023-05-10T09:00:46.080Z,100356.81
2023-05-10T09:03:16.049Z,100357.59
2023-05-10T09:05:45.858Z,100361.03
2023-05-10T09:08:17.578Z,100356.97
2023-05-10T09:10:48.627Z,100350.84
2023-05-10T09:13:19.290Z,100344.28
2023-05-10T09:15:49.446Z,100342.00
2023-05-10T09:18:18.611Z,100335.47
2023-05-10T09:20:47.854Z,100337.38
2023-05-10T09:23:18.675Z,100334.25
2023-05-10T09:25:49.175Z,100330.69
2023-05-10T09:28:18.180Z,100323.22
2023-05-10T09:30:56.727Z,100323.16
2023-05-10T09:33:27.691Z,100333.19
2023-05-10T09:35:57.426Z,100327.75
2023-05-10T09:38:27.822Z,100327.69
2023-05-10T09:40:57.949Z,100331.00
2023-05-10T09:43:28.543Z,100327.50
2023-05-10T09:45:57.958Z,100318.97
2023-05-10T09:48:27.459Z,100323.06
2023-05-10T09:50:59.618Z,100322.59
2023-05-10T09:53:30.310Z,100318.06
2023-05-10T09:55:59.679Z,100309.44
2023-05-10T09:58:29.199Z,100307.38
2023-05-10T10:00:58.753Z,100312.94
2023-05-10T10:03:30.303Z,100308.47
2023-05-10T10:06:00.120Z,100317.50
2023-05-10T10:08:31.221Z,100294.34
2023-05-10T10:11:00.822Z,100293.19
2023-05-10T10:13:34.409Z,100288.03
2023-05-10T10:16:06.610Z,100285.78
2023-05-10T10:18:39.999Z,100278.28
2023-05-10T10:21:10.830Z,100277.81
2023-05-10T10:29:04.077Z,100272.91
2023-05-10T10:31:40.415Z,100272.00
2023-05-10T10:34:12.253Z,100262.34
2023-05-10T10:36:47.798Z,100265.63
2023-05-10T10:39:17.924Z,100263.31
2023-05-10T10:41:53.202Z,100266.81
2023-05-10T10:44:28.884Z,100264.63
2023-05-10T10:47:24.306Z,100255.28
2023-05-10T10:50:05.622Z,100261.16
2023-05-10T10:52:36.972Z,100251.19
2023-05-10T10:55:09.448Z,100250.72
2023-05-10T10:57:49.649Z,100250.50
2023-05-10T11:00:32.340Z,100245.66
2023-05-10T11:03:05.510Z,100253.38
2023-05-10T11:05:41.384Z,100245.69
2023-05-10T11:08:17.409Z,100247.06
2023-05-10T11:10:55.568Z,100245.06
2023-05-10T11:13:32.466Z,100243.16
2023-05-10T11:16:14.379Z,100245.63
2023-05-10T11:18:54.280Z,100240.31
2023-05-10T11:21:24.071Z,100240.78
2023-05-10T11:23:58.509Z,100240.44
2023-05-10T11:26:32.679Z,100225.47
2023-05-10T11:29:03.031Z,100228.94
2023-05-10T11:31:34.268Z,100226.38
2023-05-10T11:34:04.038Z,100229.72
2023-05-10T11:36:37.052Z,100228.38
2023-05-10T11:39:07.772Z,100218.63
2023-05-10T11:41:37.117Z,100227.97
2023-05-10T11:44:06.582Z,100221.22
2023-05-10T11:46:38.811Z,100215.34
2023-05-10T11:49:10.121Z,100223.97
2023-05-10T11:51:40.512Z,100210.72
2023-05-10T11:54:11.863Z,100219.41
2023-05-10T11:56:42.254Z,100208.00
2023-05-10T11:59:11.588Z,100209.50
2023-05-10T12:01:42.504Z,100209.19
2023-05-10T12:04:11.914Z,100203.97
2023-05-10T12:06:43.279Z,100202.16
2023-05-10T12:09:12.534Z,100200.25
2023-05-10T12:11:44.348Z,100199.91
2023-05-10T12:14:14.081Z,100198.59
2023-05-10T12:16:46.195Z,100199.44
2023-05-10T12:19:21.785Z,100193.97
2023-05-10T12:21:51.519Z,100186.63
2023-05-10T12:24:22.659Z,100184.75
2023-05-10T12:29:42.693Z,100185.03
2023-05-10T12:32:13.611Z,100175.28
2023-05-10T12:34:42.776Z,100174.72
2023-05-10T12:37:11.816Z,100175.00
2023-05-10T12:39:42.559Z,100176.03
2023-05-10T12:42:12.725Z,100172.72
2023-05-10T12:44:42.331Z,100169.09
2023-05-10T12:47:20.419Z,100173.47
2023-05-10T12:49:49.509Z,100175.44
2023-05-10T12:52:18.605Z,100173.63
2023-05-10T12:54:48.457Z,100176.94
2023-05-10T12:57:17.509Z,100176.78
2023-05-10T12:59:46.667Z,100177.88
2023-05-10T13:02:19.171Z,100170.75
2023-05-10T13:04:50.803Z,100173.41
2023-05-10T13:07:20.688Z,100166.34
2023-05-10T13:09:50.625Z,100160.59
2023-05-10T13:12:19.787Z,100168.13
2023-05-10T13:14:48.893Z,100164.22
2023-05-10T13:17:19.427Z,100159.03
2023-05-10T13:19:48.496Z,100158.53
2023-05-10T13:22:25.629Z,100168.53
2023-05-10T13:25:02.172Z,100171.53
2023-05-10T13:27:32.987Z,100168.28
2023-05-10T13:30:02.045Z,100157.19
2023-05-10T13:32:37.262Z,100156.59
2023-05-10T13:35:08.734Z,100154.00
2023-05-10T13:37:38.351Z,100150.53
2023-05-10T13:40:08.961Z,100160.50
2023-05-10T13:42:38.610Z,100154.06
2023-05-10T13:45:08.757Z,100156.22
2023-05-10T13:47:39.290Z,100159.22
2023-05-10T13:50:09.280Z,100150.69
2023-05-10T13:52:38.586Z,100152.06
2023-05-10T13:55:08.014Z,100151.91
2023-05-10T13:57:38.053Z,100147.53
2023-05-10T14:00:08.928Z,100150.53
2023-05-10T14:02:40.122Z,100153.63
2023-05-10T14:05:09.772Z,100155.38
2023-05-10T14:07:39.148Z,100146.06
2023-05-10T14:10:09.217Z,100150.69
2023-05-10T14:12:38.432Z,100154.38
2023-05-10T14:15:08.451Z,100148.25
2023-05-10T14:17:37.526Z,100152.34
2023-05-10T14:20:09.591Z,100149.66
2023-05-10T14:22:38.787Z,100147.03
2023-05-10T14:25:08.332Z,100142.69
2023-05-10T14:27:37.763Z,100138.50
2023-05-10T14:30:08.008Z,100138.94
2023-05-10T14:32:37.767Z,100143.19
2023-05-10T14:35:12.133Z,100138.50
2023-05-10T14:37:42.163Z,100143.88
2023-05-10T14:40:12.136Z,100137.06
2023-05-10T14:42:41.465Z,100137.78
2023-05-10T14:45:12.181Z,100140.84
2023-05-10T14:47:41.275Z,100131.94
2023-05-10T14:50:21.497Z,100138.56
2023-05-10T14:53:01.352Z,100134.53
2023-05-10T14:55:30.459Z,100137.78
2023-05-10T14:57:59.813Z,100130.81
2023-05-10T15:00:31.680Z,100131.41
2023-05-10T15:03:01.488Z,100128.28
2023-05-10T15:05:32.637Z,100124.78
2023-05-10T15:08:02.029Z,100127.53
2023-05-10T15:10:33.110Z,100130.44
2023-05-10T15:13:03.793Z,100128.34
2023-05-10T15:15:33.147Z,100122.47
2023-05-10T15:18:02.224Z,100120.53
2023-05-10T15:20:32.801Z,100124.81
2023-05-10T15:23:01.885Z,100127.13
2023-05-10T15:25:31.018Z,100125.88
2023-05-10T15:28:00.149Z,100123.22
2023-05-10T15:30:29.941Z,100122.03
2023-05-10T15:32:59.287Z,100118.38
2023-05-10T15:35:29.409Z,100120.78
2023-05-10T15:38:00.829Z,100117.16
2023-05-10T15:40:30.335Z,100118.16
2023-05-10T15:42:59.598Z,100118.75
2023-05-10T15:45:29.035Z,100125.22
2023-05-10T15:47:58.279Z,100121.69
2023-05-10T15:50:27.952Z,100117.72
2023-05-10T15:52:57.617Z,100114.03
2023-05-10T15:55:28.871Z,100114.66
2023-05-10T15:57:58.090Z,100112.22
2023-05-10T16:00:28.583Z,100115.00
2023-05-10T16:02:58.039Z,100099.97
2023-05-10T16:05:30.051Z,100100.94
2023-05-10T16:07:59.291Z,100116.28
2023-05-10T16:10:33.325Z,100108.56
2023-05-10T16:13:03.563Z,100111.50
2023-05-10T16:15:32.768Z,100118.16
2023-05-10T16:18:02.862Z,100116.13
2023-05-10T16:20:32.276Z,100112.81
2023-05-10T16:23:04.951Z,100115.78
2023-05-10T16:25:35.879Z,100106.34
2023-05-10T16:28:05.233Z,100118.69
2023-05-10T16:30:34.464Z,100116.41
2023-05-10T16:33:04.644Z,100113.22
2023-05-10T16:35:33.801Z,100113.69
2023-05-10T16:38:03.617Z,100115.03
2023-05-10T16:40:32.953Z,100112.78
2023-05-10T16:43:03.809Z,100109.47
2023-05-10T16:45:33.415Z,100107.41
2023-05-10T16:48:02.520Z,100119.38
2023-05-10T16:50:32.584Z,100113.66
2023-05-10T16:53:02.292Z,100112.75
2023-05-10T16:55:31.533Z,100118.69
2023-05-10T16:58:01.149Z,100123.59
2023-05-10T17:00:31.797Z,100116.25
2023-05-10T17:03:01.412Z,100127.41
2023-05-10T17:05:33.735Z,100124.31
2023-05-10T17:08:02.947Z,100121.84
2023-05-10T17:10:32.716Z,100124.22
2023-05-10T17:13:02.071Z,100128.97
2023-05-10T17:15:32.511Z,100121.66
2023-05-10T17:18:01.863Z,100137.13
2023-05-10T17:20:31.168Z,100128.81
2023-05-10T17:23:00.793Z,100133.00
2023-05-10T17:25:30.366Z,100136.44
2023-05-10T17:28:00.166Z,100130.53
2023-05-10T17:30:33.305Z,100129.84
2023-05-10T17:33:03.867Z,100134.00
2023-05-10T17:35:34.340Z,100125.91
2023-05-10T17:38:03.528Z,100139.91
2023-05-10T17:40:32.555Z,100128.25
2023-05-10T17:43:01.617Z,100141.66
2023-05-10T17:45:30.940Z,100146.06
2023-05-10T17:48:00.059Z,100143.38
2023-05-10T17:50:31.977Z,100141.34
2023-05-10T17:53:19.592Z,100146.28
2023-05-10T17:55:48.700Z,100147.88
2023-05-10T17:58:18.915Z,100145.44
2023-05-10T18:00:48.091Z,100149.38
2023-05-10T18:03:17.226Z,100149.13
2023-05-10T18:05:49.066Z,100149.38
2023-05-10T18:08:22.948Z,100147.78
2023-05-10T18:10:52.152Z,100149.38
2023-05-10T18:13:21.650Z,100154.06
2023-05-10T18:15:50.798Z,100154.59
2023-05-10T18:18:20.087Z,100144.69
2023-05-10T18:20:56.531Z,100142.59
2023-05-10T18:23:26.670Z,100150.19
2023-05-10T18:25:56.100Z,100141.97
2023-05-10T18:28:25.856Z,100145.22
2023-05-10T18:30:55.025Z,100151.50
2023-05-10T18:33:24.166Z,100143.94
2023-05-10T18:35:54.597Z,100147.19
2023-05-10T18:38:23.781Z,100150.97
2023-05-10T18:40:53.870Z,100149.16
2023-05-10T18:43:22.954Z,100146.91
2023-05-10T18:45:52.796Z,100149.16
2023-05-10T18:48:22.922Z,100152.53
2023-05-10T18:50:52.278Z,100151.63
2023-05-10T18:53:23.012Z,100154.94
2023-05-10T18:55:58.596Z,100151.41
2023-05-10T18:58:29.050Z,100158.34
2023-05-10T19:00:58.825Z,100156.00
2023-05-10T19:03:28.051Z,100154.44
2023-05-10T19:05:57.167Z,100159.13
2023-05-10T19:08:27.598Z,100157.16
2023-05-10T19:10:56.808Z,100155.88
2023-05-10T19:13:27.845Z,100159.50
2023-05-10T19:16:07.392Z,100155.59
2023-05-10T19:18:38.337Z,100156.25
2023-05-10T19:21:10.431Z,100154.56
2023-05-10T19:23:42.134Z,100156.13
2023-05-10T19:26:12.756Z,100158.34
2023-05-10T19:28:42.907Z,100164.09
2023-05-10T19:31:12.811Z,100165.66
2023-05-10T19:33:42.106Z,100162.25
2023-05-10T19:36:11.433Z,100165.03
2023-05-10T19:38:42.069Z,100165.53
2023-05-10T19:41:11.613Z,100157.03
2023-05-10T19:43:41.899Z,100157.53
2023-05-10T19:46:11.155Z,100158.09
2023-05-10T19:48:40.444Z,100154.03
2023-05-10T19:51:10.263Z,100160.69
2023-05-10T19:53:44.273Z,100159.41
2023-05-10T19:56:14.457Z,100164.34
2023-05-10T19:58:43.684Z,100163.56
2023-05-10T20:01:13.046Z,100167.75
2023-05-10T20:03:42.322Z,100160.69
2023-05-10T20:06:12.098Z,100163.69
2023-05-10T20:08:43.010Z,100161.72
2023-05-10T20:11:12.241Z,100159.13
2023-05-10T20:13:41.274Z,100159.66
2023-05-10T20:16:10.343Z,100167.47
2023-05-10T20:18:42.026Z,100168.00
2023-05-10T20:21:11.416Z,100168.50
2023-05-10T20:23:40.686Z,100158.94
2023-05-10T20:26:11.285Z,100165.75
2023-05-10T20:28:40.839Z,100164.84
2023-05-10T20:31:10.394Z,100161.97
2023-05-10T20:33:39.489Z,100161.75
2023-05-10T20:36:09.722Z,100157.66
2023-05-10T20:38:38.926Z,100168.13
2023-05-10T20:41:08.124Z,100165.59
2023-05-10T20:43:38.627Z,100166.69
2023-05-10T20:46:07.942Z,100168.13
2023-05-10T20:48:37.026Z,100166.44
2023-05-10T20:51:06.161Z,100165.38
2023-05-10T20:53:35.167Z,100164.75
2023-05-10T20:56:04.177Z,100165.78
2023-05-10T20:58:33.458Z,100163.19
2023-05-10T21:01:04.237Z,100162.53
2023-05-10T21:03:33.228Z,100155.06
2023-05-10T21:06:02.389Z,100160.97
2023-05-10T21:08:31.466Z,100157.19
2023-05-10T21:11:04.864Z,100164.53
2023-05-10T21:13:34.422Z,100159.66
2023-05-10T21:16:05.716Z,100156.66
2023-05-10T21:18:34.753Z,100161.22
2023-05-10T21:21:03.964Z,100159.66
2023-05-10T21:23:34.419Z,100163.06
2023-05-10T21:26:04.362Z,100168.63
2023-05-10T21:28:33.410Z,100152.41
2023-05-10T21:31:02.571Z,100163.63
2023-05-10T21:33:32.958Z,100158.41
2023-05-10T21:36:02.200Z,100155.41
2023-05-10T21:38:31.767Z,100161.22
2023-05-10T21:41:00.772Z,100156.13
2023-05-10T21:43:30.027Z,100154.44
2023-05-10T21:45:59.075Z,100163.97
2023-05-10T21:48:28.302Z,100159.94
2023-05-10T21:50:58.873Z,100157.59
2023-05-10T21:53:28.468Z,100162.31
2023-05-10T21:55:57.617Z,100154.88
2023-05-10T21:58:26.566Z,100163.50
2023-05-10T22:00:56.308Z,100162.03
2023-05-10T22:03:25.674Z,100160.84
2023-05-10T22:05:54.948Z,100163.97
2023-05-10T22:08:25.778Z,100156.13
2023-05-10T22:10:54.774Z,100156.53
2023-05-10T22:13:23.775Z,100155.63
2023-05-10T22:15:52.906Z,100158.50
2023-05-10T22:18:22.042Z,100156.44
2023-05-10T22:20:51.096Z,100155.16
2023-05-10T22:23:20.221Z,100157.88
2023-05-10T22:25:50.630Z,100152.03
2023-05-10T22:28:19.606Z,100149.28
2023-05-10T22:30:49.723Z,100152.81
2023-05-10T22:33:18.858Z,100147.72
2023-05-10T22:35:47.932Z,100143.94
2023-05-10T22:38:17.004Z,100146.03
2023-05-10T22:40:46.031Z,100144.63
2023-05-10T22:43:18.373Z,100141.59
2023-05-10T22:45:47.494Z,100148.91
2023-05-10T22:48:16.992Z,100145.66
2023-05-10T22:50:45.945Z,100148.56
2023-05-10T22:53:14.896Z,100141.91
2023-05-10T22:55:43.928Z,100151.56
2023-05-10T22:58:12.922Z,100146.72
2023-05-10T23:00:43.342Z,100142.16
2023-05-10T23:03:12.341Z,100142.16
2023-05-10T23:05:41.363Z,100142.16
2023-05-10T23:08:10.387Z,100146.84
2023-05-10T23:10:39.357Z,100142.41
2023-05-10T23:13:08.355Z,100148.91
2023-05-10T23:15:37.470Z,100144.88
2023-05-10T23:18:09.838Z,100153.88
2023-05-10T23:20:38.910Z,100155.19
2023-05-10T23:23:07.867Z,100150.44
2023-05-10T23:25:37.174Z,100150.19
2023-05-10T23:28:07.092Z,100149.28
2023-05-10T23:30:36.186Z,100146.16
2023-05-10T23:33:05.269Z,100157.41
2023-05-10T23:35:35.766Z,100154.16
2023-05-10T23:38:04.903Z,100150.88
2023-05-10T23:40:33.828Z,100154.50
2023-05-10T23:43:02.756Z,100158.28
2023-05-10T23:45:32.088Z,100158.78
2023-05-10T23:48:01.206Z,100156.41
2023-05-10T23:50:30.187Z,100157.19
2023-05-10T23:53:00.692Z,100157.19
2023-05-10T23:55:29.672Z,100158.63
2023-05-10T23:57:58.694Z,100152.41
